C2008 KNBG-L83
Flight info
| Callsign | C2008 |
|---|---|
| Flight time | N/A |
| Altitude | 5000 |
| Route | TBD |
| Aircraft | C30J/M-VRDW/C |
Departure
| Time | 2026-05-07 02:56 |
|---|---|
| Airport | New Orleans NAS JRB/Alvin Callender Field (KNBG) |
Arrival
| Time | N/A |
|---|---|
| Airport | L83 |
| Time | Latitude | Longitude | Altitude | Speed | Heading |
|---|---|---|---|---|---|
| 2026-05-07 02:36 | 29.41288 | -90.38144 | 4056 ft | 262 kts | 300° |
| 2026-05-07 02:37 | 29.42215 | -90.39947 | 4056 ft | 262 kts | 300° |
| 2026-05-07 02:37 | 29.43143 | -90.41751 | 4056 ft | 263 kts | 299° |
| 2026-05-07 02:37 | 29.44072 | -90.43553 | 3974 ft | 265 kts | 299° |
| 2026-05-07 02:37 | 29.45014 | -90.45388 | 3925 ft | 264 kts | 300° |
| 2026-05-07 02:38 | 29.45937 | -90.47179 | 4129 ft | 257 kts | 299° |
| 2026-05-07 02:38 | 29.46836 | -90.48932 | 4315 ft | 253 kts | 299° |
| 2026-05-07 02:38 | 29.47727 | -90.50669 | 4500 ft | 251 kts | 299° |
| 2026-05-07 02:38 | 29.48609 | -90.52390 | 4670 ft | 249 kts | 299° |
| 2026-05-07 02:39 | 29.49483 | -90.54096 | 4840 ft | 249 kts | 299° |
| 2026-05-07 02:39 | 29.50359 | -90.55815 | 5003 ft | 249 kts | 299° |
| 2026-05-07 02:39 | 29.51245 | -90.57543 | 5051 ft | 253 kts | 299° |
| 2026-05-07 02:39 | 29.52144 | -90.59296 | 5066 ft | 257 kts | 299° |
| 2026-05-07 02:40 | 29.53053 | -90.61078 | 5060 ft | 260 kts | 299° |
| 2026-05-07 02:40 | 29.53974 | -90.62877 | 5055 ft | 262 kts | 300° |
| 2026-05-07 02:40 | 29.54901 | -90.64686 | 5056 ft | 263 kts | 299° |
| 2026-05-07 02:40 | 29.55828 | -90.66505 | 5056 ft | 265 kts | 299° |
| 2026-05-07 02:41 | 29.56761 | -90.68331 | 5054 ft | 265 kts | 299° |
| 2026-05-07 02:41 | 29.57694 | -90.70164 | 5055 ft | 266 kts | 299° |
| 2026-05-07 02:41 | 29.58628 | -90.71997 | 5055 ft | 266 kts | 299° |
| 2026-05-07 02:41 | 29.59567 | -90.73836 | 5054 ft | 266 kts | 299° |
| 2026-05-07 02:42 | 29.60490 | -90.75647 | 5049 ft | 255 kts | 299° |
| 2026-05-07 02:42 | 29.61348 | -90.77325 | 5044 ft | 235 kts | 299° |
| 2026-05-07 02:42 | 29.62153 | -90.78905 | 5047 ft | 222 kts | 299° |
| 2026-05-07 02:42 | 29.62902 | -90.80378 | 5044 ft | 206 kts | 299° |
| 2026-05-07 02:43 | 29.63596 | -90.81740 | 5056 ft | 190 kts | 299° |
| 2026-05-07 02:43 | 29.64240 | -90.83004 | 5042 ft | 176 kts | 299° |
| 2026-05-07 02:43 | 29.64840 | -90.84156 | 5035 ft | 160 kts | 299° |
| 2026-05-07 02:43 | 29.65561 | -90.85019 | 5034 ft | 148 kts | 335° |
| 2026-05-07 02:44 | 29.66564 | -90.85239 | 5074 ft | 155 kts | 352° |
| 2026-05-07 02:44 | 29.67705 | -90.85265 | 5082 ft | 176 kts | 358° |
| 2026-05-07 02:44 | 29.68980 | -90.85224 | 5067 ft | 189 kts | 359° |
| 2026-05-07 02:44 | 29.70327 | -90.85169 | 5058 ft | 197 kts | 359° |
| 2026-05-07 02:45 | 29.71715 | -90.85110 | 5062 ft | 201 kts | 359° |
| 2026-05-07 02:45 | 29.73114 | -90.84991 | 5053 ft | 204 kts | 13° |
| 2026-05-07 02:45 | 29.74251 | -90.84046 | 5056 ft | 209 kts | 56° |
| 2026-05-07 02:45 | 29.74542 | -90.82442 | 5061 ft | 210 kts | 101° |
| 2026-05-07 02:46 | 29.73830 | -90.81038 | 5055 ft | 206 kts | 145° |
| 2026-05-07 02:46 | 29.72542 | -90.80479 | 5066 ft | 201 kts | 174° |
| 2026-05-07 02:46 | 29.71131 | -90.80302 | 5062 ft | 201 kts | 179° |
| 2026-05-07 02:46 | 29.69752 | -90.80193 | 5053 ft | 202 kts | 179° |
| 2026-05-07 02:47 | 29.68349 | -90.80086 | 5050 ft | 202 kts | 179° |
| 2026-05-07 02:47 | 29.66953 | -90.79977 | 5058 ft | 202 kts | 179° |
| 2026-05-07 02:47 | 29.65550 | -90.79873 | 5053 ft | 201 kts | 179° |
| 2026-05-07 02:47 | 29.64156 | -90.79793 | 5051 ft | 200 kts | 187° |
| 2026-05-07 02:48 | 29.62954 | -90.80452 | 5050 ft | 192 kts | 231° |
| 2026-05-07 02:48 | 29.62540 | -90.81854 | 5061 ft | 190 kts | 275° |
| 2026-05-07 02:48 | 29.63143 | -90.83171 | 5052 ft | 193 kts | 320° |
| 2026-05-07 02:48 | 29.64417 | -90.83668 | 5066 ft | 199 kts | 352° |
| 2026-05-07 02:49 | 29.65810 | -90.83695 | 5057 ft | 201 kts | 358° |
| 2026-05-07 02:49 | 29.67207 | -90.83648 | 5053 ft | 201 kts | 359° |
| 2026-05-07 02:49 | 29.68612 | -90.83596 | 5051 ft | 202 kts | 359° |
| 2026-05-07 02:49 | 29.69944 | -90.83122 | 5046 ft | 207 kts | 34° |
| 2026-05-07 02:50 | 29.70970 | -90.81957 | 5056 ft | 208 kts | 47° |
| 2026-05-07 02:50 | 29.71916 | -90.80660 | 4920 ft | 214 kts | 49° |
| 2026-05-07 02:50 | 29.72849 | -90.79345 | 4762 ft | 210 kts | 49° |
| 2026-05-07 02:50 | 29.73763 | -90.78045 | 4588 ft | 208 kts | 49° |
| 2026-05-07 02:51 | 29.74670 | -90.76751 | 4416 ft | 207 kts | 49° |
| 2026-05-07 02:51 | 29.75570 | -90.75468 | 4242 ft | 206 kts | 49° |
| 2026-05-07 02:51 | 29.76470 | -90.74184 | 4069 ft | 206 kts | 49° |
| 2026-05-07 02:51 | 29.77371 | -90.72907 | 3871 ft | 206 kts | 49° |
| 2026-05-07 02:52 | 29.78280 | -90.71617 | 3569 ft | 209 kts | 49° |
| 2026-05-07 02:52 | 29.79085 | -90.70216 | 3266 ft | 214 kts | 71° |
| 2026-05-07 02:52 | 29.79294 | -90.68529 | 3093 ft | 211 kts | 87° |
| 2026-05-07 02:52 | 29.79329 | -90.66853 | 3052 ft | 207 kts | 89° |
| 2026-05-07 02:53 | 29.79346 | -90.65224 | 3049 ft | 201 kts | 89° |
| 2026-05-07 02:53 | 29.79361 | -90.63632 | 3052 ft | 197 kts | 89° |
| 2026-05-07 02:53 | 29.79376 | -90.62061 | 3055 ft | 196 kts | 89° |
| 2026-05-07 02:53 | 29.79395 | -90.60455 | 3062 ft | 205 kts | 89° |
| 2026-05-07 02:54 | 29.79413 | -90.58804 | 3057 ft | 206 kts | 89° |
| 2026-05-07 02:54 | 29.79431 | -90.57156 | 3054 ft | 205 kts | 89° |
| 2026-05-07 02:54 | 29.79447 | -90.55517 | 3055 ft | 204 kts | 89° |
| 2026-05-07 02:54 | 29.79464 | -90.53930 | 3053 ft | 198 kts | 89° |
| 2026-05-07 02:55 | 29.79485 | -90.52317 | 3060 ft | 204 kts | 89° |
| 2026-05-07 02:55 | 29.79507 | -90.50706 | 3057 ft | 205 kts | 89° |
| 2026-05-07 02:55 | 29.79524 | -90.49070 | 3055 ft | 204 kts | 89° |
| 2026-05-07 02:55 | 29.79540 | -90.47436 | 3056 ft | 204 kts | 89° |
| 2026-05-07 02:56 | 29.79559 | -90.45799 | 3056 ft | 206 kts | 89° |
| 2026-05-07 02:56 | 29.79579 | -90.44164 | 3056 ft | 204 kts | 89° |
| 2026-05-07 02:56 | 29.79599 | -90.42530 | 3055 ft | 204 kts | 89° |
| 2026-05-07 02:56 | 29.79620 | -90.40895 | 3056 ft | 205 kts | 89° |
| 2026-05-07 02:57 | 29.79639 | -90.39259 | 3055 ft | 204 kts | 89° |
| 2026-05-07 02:57 | 29.79659 | -90.37635 | 3059 ft | 201 kts | 89° |
| 2026-05-07 02:57 | 29.79678 | -90.36024 | 3059 ft | 201 kts | 89° |
| 2026-05-07 02:57 | 29.79698 | -90.34412 | 3055 ft | 201 kts | 89° |
| 2026-05-07 02:58 | 29.79711 | -90.32804 | 3046 ft | 201 kts | 89° |
| 2026-05-07 02:58 | 29.79728 | -90.31204 | 3033 ft | 198 kts | 89° |
| 2026-05-07 02:58 | 29.79748 | -90.29654 | 3032 ft | 191 kts | 89° |
| 2026-05-07 02:58 | 29.79769 | -90.28131 | 3037 ft | 190 kts | 89° |
| 2026-05-07 02:59 | 29.79787 | -90.26611 | 3038 ft | 190 kts | 89° |
| 2026-05-07 02:59 | 29.79797 | -90.25088 | 3038 ft | 191 kts | 89° |
| 2026-05-07 02:59 | 29.79810 | -90.23561 | 3037 ft | 190 kts | 89° |
| 2026-05-07 02:59 | 29.79824 | -90.22034 | 3039 ft | 191 kts | 89° |
| 2026-05-07 03:00 | 29.79838 | -90.20514 | 3036 ft | 191 kts | 89° |
| 2026-05-07 03:00 | 29.79856 | -90.18986 | 3038 ft | 190 kts | 89° |
| 2026-05-07 03:00 | 29.79878 | -90.17483 | 3036 ft | 190 kts | 89° |
| 2026-05-07 03:00 | 29.79896 | -90.15962 | 3039 ft | 190 kts | 89° |
| 2026-05-07 03:01 | 29.80188 | -90.14507 | 3037 ft | 188 kts | 57° |
| 2026-05-07 03:01 | 29.81000 | -90.13336 | 3038 ft | 181 kts | 45° |
| 2026-05-07 03:01 | 29.81836 | -90.12345 | 3035 ft | 168 kts | 42° |
| 2026-05-07 03:01 | 29.82655 | -90.11406 | 3034 ft | 166 kts | 42° |
| 2026-05-07 03:02 | 29.83471 | -90.10465 | 3038 ft | 166 kts | 42° |
| 2026-05-07 03:02 | 29.84289 | -90.09523 | 3041 ft | 166 kts | 43° |
| 2026-05-07 03:02 | 29.85094 | -90.08571 | 3038 ft | 166 kts | 45° |
| 2026-05-07 03:02 | 29.85867 | -90.07578 | 3037 ft | 166 kts | 45° |
| 2026-05-07 03:03 | 29.86635 | -90.06579 | 3039 ft | 166 kts | 46° |
| 2026-05-07 03:03 | 29.87398 | -90.05572 | 3036 ft | 166 kts | 46° |
| 2026-05-07 03:03 | 29.88159 | -90.04570 | 3038 ft | 166 kts | 46° |
| 2026-05-07 03:03 | 29.88923 | -90.03566 | 3037 ft | 167 kts | 46° |
| 2026-05-07 03:04 | 29.89691 | -90.02561 | 3036 ft | 167 kts | 46° |
| 2026-05-07 03:04 | 29.90456 | -90.01562 | 3037 ft | 166 kts | 46° |
| 2026-05-07 03:04 | 29.91220 | -90.00560 | 3038 ft | 167 kts | 46° |
| 2026-05-07 03:04 | 29.91983 | -89.99555 | 3037 ft | 167 kts | 46° |
| 2026-05-07 03:05 | 29.92711 | -89.98525 | 3062 ft | 166 kts | 63° |
| 2026-05-07 03:05 | 29.92572 | -89.97256 | 2998 ft | 168 kts | 130° |
| 2026-05-07 03:05 | 29.91618 | -89.96522 | 2740 ft | 166 kts | 161° |
| 2026-05-07 03:05 | 29.90508 | -89.96138 | 2293 ft | 163 kts | 178° |
| 2026-05-07 03:06 | 29.89420 | -89.96257 | 1875 ft | 154 kts | 201° |
| 2026-05-07 03:06 | 29.88530 | -89.96860 | 1394 ft | 147 kts | 225° |
| 2026-05-07 03:06 | 29.87792 | -89.97644 | 1028 ft | 144 kts | 225° |
| 2026-05-07 03:06 | 29.87051 | -89.98437 | 819 ft | 146 kts | 226° |
| 2026-05-07 03:07 | 29.86334 | -89.99267 | 625 ft | 147 kts | 229° |
| 2026-05-07 03:07 | 29.85590 | -90.00078 | 393 ft | 147 kts | 226° |
| 2026-05-07 03:07 | 29.84861 | -90.00909 | 192 ft | 149 kts | 226° |
| 2026-05-07 03:07 | 29.84147 | -90.01718 | 12 ft | 137 kts | 225° |
| 2026-05-07 03:08 | 29.83787 | -90.02129 | 6 ft | 26 kts | 224° |
| 2026-05-07 03:08 | 29.83693 | -90.02232 | 6 ft | 12 kts | 223° |
| 2026-05-07 03:08 | 29.83648 | -90.02281 | 7 ft | 6 kts | 223° |
| 2026-05-07 03:08 | 29.83622 | -90.02309 | 5 ft | 13 kts | 223° |
| 2026-05-07 03:09 | 29.83526 | -90.02383 | 9 ft | 16 kts | 182° |
| 2026-05-07 03:09 | 29.83475 | -90.02346 | 10 ft | 20 kts | 133° |
| 2026-05-07 03:09 | 29.83387 | -90.02263 | 12 ft | 8 kts | 169° |
| 2026-05-07 03:09 | 29.83370 | -90.02266 | 11 ft | 4 kts | 210° |
| 2026-05-07 03:10 | 29.83318 | -90.02320 | 11 ft | 16 kts | 225° |
| 2026-05-07 03:10 | 29.83245 | -90.02403 | 11 ft | 13 kts | 223° |
| 2026-05-07 03:10 | 29.83181 | -90.02473 | 12 ft | 12 kts | 224° |
| 2026-05-07 03:10 | 29.83121 | -90.02540 | 12 ft | 12 kts | 223° |
| 2026-05-07 03:11 | 29.83056 | -90.02612 | 11 ft | 14 kts | 225° |
| 2026-05-07 03:11 | 29.82991 | -90.02686 | 9 ft | 13 kts | 224° |
| 2026-05-07 03:11 | 29.82929 | -90.02758 | 10 ft | 13 kts | 227° |
| 2026-05-07 03:11 | 29.82869 | -90.02829 | 7 ft | 13 kts | 225° |
| 2026-05-07 03:12 | 29.82806 | -90.02897 | 6 ft | 12 kts | 223° |
| 2026-05-07 03:12 | 29.82746 | -90.02961 | 7 ft | 11 kts | 223° |
| 2026-05-07 03:12 | 29.82692 | -90.03020 | 8 ft | 10 kts | 225° |
| 2026-05-07 03:12 | 29.82638 | -90.03081 | 9 ft | 11 kts | 225° |
| 2026-05-07 03:13 | 29.82592 | -90.03113 | 9 ft | 0 kts | 184° |
| 2026-05-07 03:13 | 29.82556 | -90.03124 | 10 ft | 14 kts | 196° |
| 2026-05-07 03:13 | 29.82431 | -90.03163 | 13 ft | 23 kts | 178° |
| 2026-05-07 03:13 | 29.82282 | -90.03056 | 12 ft | 29 kts | 141° |
| 2026-05-07 03:14 | 29.82168 | -90.02950 | 12 ft | 15 kts | 142° |
| 2026-05-07 03:14 | 29.82101 | -90.02885 | 11 ft | 11 kts | 140° |
| 2026-05-07 03:14 | 29.82006 | -90.02794 | 9 ft | 8 kts | 140° |
| 2026-05-07 03:15 | 29.81937 | -90.02729 | 10 ft | 12 kts | 140° |
| 2026-05-07 03:15 | 29.81914 | -90.02661 | 10 ft | 6 kts | 68° |
| 2026-05-07 03:15 | 29.81956 | -90.02598 | 10 ft | 15 kts | 50° |
| 2026-05-07 03:15 | 29.81981 | -90.02575 | 11 ft | 4 kts | 1° |
| 2026-05-07 03:16 | 29.82011 | -90.02588 | 10 ft | 3 kts | 323° |
| 2026-05-07 03:16 | 29.82018 | -90.02595 | 10 ft | 0 kts | 317° |